Time;durP1;ratioP1;P1;durP2;ratioP2;P2;SDS_P1;SDS_P2;PMS_P1;PMS_P2;Temp;Humidity;BMP_temperature;BMP_pressure;BME280_temperature;BME280_humidity;BME280_pressure;Samples;Min_cycle;Max_cycle;Signal;HPM_P1;HPM_P2
2023/05/25 00:01:25;;;;;;;14.27;7.25;;;;;;;;;;6243309;23;20362;-76
2023/05/25 00:03:54;;;;;;;15.00;6.88;;;10.10;99.90;;;;;;6217319;23;20825;-76
2023/05/25 00:06:20;;;;;;;14.05;6.63;;;;;;;;;;6241606;23;20393;-76
2023/05/25 00:08:47;;;;;;;14.15;7.05;;;;;;;;;;6242350;23;20370;-75
2023/05/25 00:11:13;;;;;;;13.63;6.60;;;;;;;;;;6242936;23;20366;-75
2023/05/25 00:13:39;;;;;;;16.83;7.60;;;;;;;;;;6241478;23;20684;-76
2023/05/25 00:16:06;;;;;;;15.98;7.20;;;;;;;;;;6217741;23;20440;-76
2023/05/25 00:18:32;;;;;;;14.57;6.85;;;;;;;;;;6239884;23;20895;-76
2023/05/25 00:21:04;;;;;;;13.60;6.72;;;;;;;;;;6242332;23;20836;-75
2023/05/25 00:23:30;;;;;;;13.95;6.80;;;;;;;;;;6242219;23;20366;-76
2023/05/25 00:25:56;;;;;;;14.82;7.07;;;;;;;;;;6191992;23;20361;-76
2023/05/25 00:28:22;;;;;;;16.27;7.30;;;;;;;;;;6214939;23;20390;-75
2023/05/25 00:30:48;;;;;;;12.98;6.80;;;;;;;;;;6242930;23;20372;-76
2023/05/25 00:33:15;;;;;;;12.50;6.80;;;;;;;;;;6241423;23;20369;-75
2023/05/25 00:35:45;;;;;;;12.40;6.50;;;;;;;;;;6191811;23;20370;-75
2023/05/25 00:38:16;;;;;;;12.93;6.72;;;9.70;99.90;;;;;;6242674;23;20451;-75
2023/05/25 00:40:42;;;;;;;13.05;7.00;;;;;;;;;;6242561;23;20373;-75
2023/05/25 00:43:09;;;;;;;13.52;7.45;;;;;;;;;;6242812;23;20366;-76
2023/05/25 00:45:35;;;;;;;14.97;6.70;;;;;;;;;;6214745;23;20404;-76
2023/05/25 00:48:03;;;;;;;13.40;6.50;;;;;;;;;;6218143;23;20856;-75
2023/05/25 00:50:35;;;;;;;12.95;6.82;;;;;;;;;;6240562;23;20366;-76
2023/05/25 00:53:01;;;;;;;13.50;6.97;;;;;;;;;;6216578;23;20393;-76
2023/05/25 00:55:30;;;;;;;12.63;6.63;;;9.40;99.90;;;;;;6241353;23;20394;-77
2023/05/25 00:57:59;;;;;;;13.27;7.05;;;9.40;99.90;;;;;;6241924;23;20394;-76
2023/05/25 01:00:25;;;;;;;15.00;6.90;;;;;;;;;;6242250;23;20431;-76
2023/05/25 01:02:55;;;;;;;13.57;6.87;;;9.40;99.90;;;;;;6242384;23;20362;-74
2023/05/25 01:05:24;;;;;;;14.45;6.97;;;;;;;;;;6239905;23;20750;-75
2023/05/25 01:07:51;;;;;;;15.02;7.20;;;;;;;;;;6241925;23;20374;-75
2023/05/25 01:10:21;;;;;;;14.73;7.40;;;9.30;99.90;;;;;;6243017;23;20370;-75
2023/05/25 01:12:50;;;;;;;15.32;7.40;;;;;;;;;;6238167;23;20369;-75
2023/05/25 01:15:16;;;;;;;16.17;7.13;;;;;;;;;;6213032;23;20874;-75
2023/05/25 01:17:42;;;;;;;13.57;7.00;;;;;;;;;;6242064;23;20365;-75
2023/05/25 01:20:09;;;;;;;11.27;6.70;;;;;;;;;;6241348;23;20874;-75
2023/05/25 01:22:47;;;;;;;16.70;7.13;;;;;;;;;;6192615;23;20689;-76
2023/05/25 01:25:20;;;;;;;15.17;7.10;;;;;;;;;;6242043;23;20368;-75
2023/05/25 01:27:56;;;;;;;16.13;7.27;;;9.40;99.90;;;;;;6240890;23;20862;-76
2023/05/25 01:30:25;;;;;;;13.43;7.03;;;9.30;99.90;;;;;;6238242;23;20870;-76
2023/05/25 01:32:53;;;;;;;14.93;6.63;;;8.90;99.90;;;;;;6242593;23;20369;-76
2023/05/25 01:35:20;;;;;;;14.55;7.53;;;;;;;;;;6242301;23;20358;-75
2023/05/25 01:37:47;;;;;;;11.73;7.07;;;;;;;;;;6241503;23;20469;-76
2023/05/25 01:40:14;;;;;;;13.75;7.10;;;8.80;99.90;;;;;;6216099;23;20392;-75
2023/05/25 01:42:40;;;;;;;13.55;6.93;;;;;;;;;;6241515;23;20373;-75
2023/05/25 01:45:07;;;;;;;13.23;7.10;;;;;;;;;;6240962;23;20362;-76
2023/05/25 01:47:39;;;;;;;14.50;7.13;;;;;;;;;;6241859;23;20431;-76
2023/05/25 01:50:11;;;;;;;14.30;7.53;;;;;;;;;;6215597;23;20369;-75
2023/05/25 01:52:56;;;;;;;13.35;7.25;;;;;;;;;;6242144;23;20370;-75
2023/05/25 01:55:26;;;;;;;15.02;7.50;;;8.60;99.90;;;;;;6242052;23;20893;-75
2023/05/25 01:57:56;;;;;;;12.18;7.00;;;;;;;;;;6216505;23;20373;-75
2023/05/25 02:00:25;;;;;;;13.90;6.72;;;8.90;99.90;;;;;;6241147;23;20389;-75
2023/05/25 02:02:52;;;;;;;12.88;7.47;;;8.80;99.90;;;;;;6216991;23;20362;-75
2023/05/25 02:05:21;;;;;;;13.88;7.38;;;;;;;;;;6241673;23;20369;-75
2023/05/25 02:07:47;;;;;;;15.70;7.93;;;;;;;;;;6241890;23;20370;-76
2023/05/25 02:10:13;;;;;;;20.63;8.30;;;;;;;;;;6243083;23;20362;-76
2023/05/25 02:12:40;;;;;;;16.85;8.77;;;;;;;;;;6241908;23;20460;-76
2023/05/25 02:15:06;;;;;;;17.27;9.10;;;;;;;;;;6241138;23;20391;-76
2023/05/25 02:17:32;;;;;;;18.08;9.32;;;;;;;;;;6217953;23;20365;-76
2023/05/25 02:19:58;;;;;;;18.50;8.85;;;;;;;;;;6243944;23;20386;-75
2023/05/25 02:22:24;;;;;;;18.00;9.63;;;;;;;;;;6219702;23;20881;-76
2023/05/25 02:24:50;;;;;;;16.55;9.25;;;;;;;;;;6217129;23;20385;-76
2023/05/25 02:27:16;;;;;;;18.15;9.50;;;;;;;;;;6216601;23;20382;-76
2023/05/25 02:29:42;;;;;;;23.42;10.15;;;;;;;;;;6218513;23;20369;-75
2023/05/25 02:32:08;;;;;;;21.70;10.10;;;;;;;;;;6243895;23;20372;-75
2023/05/25 02:34:35;;;;;;;19.95;9.50;;;;;;;;;;6243262;23;20423;-75
2023/05/25 02:37:01;;;;;;;18.30;9.57;;;;;;;;;;6244086;23;20429;-76
2023/05/25 02:39:27;;;;;;;22.25;10.27;;;;;;;;;;6243262;23;20386;-75
2023/05/25 02:41:54;;;;;;;15.63;8.85;;;;;;;;;;6242740;23;20400;-75
2023/05/25 02:44:20;;;;;;;18.13;9.40;;;;;;;;;;6244238;23;20359;-75
2023/05/25 02:46:46;;;;;;;18.95;9.18;;;;;;;;;;6217227;23;20365;-76
2023/05/25 02:49:12;;;;;;;17.88;8.95;;;;;;;;;;6242237;23;20366;-75
2023/05/25 02:51:38;;;;;;;17.98;9.65;;;;;;;;;;6243922;23;20378;-75
2023/05/25 02:54:04;;;;;;;17.38;8.85;;;;;;;;;;6218070;23;20366;-75
2023/05/25 02:56:30;;;;;;;17.83;9.32;;;;;;;;;;6192813;23;20366;-76
2023/05/25 02:58:56;;;;;;;17.13;9.15;;;;;;;;;;6243892;23;20439;-76
2023/05/25 03:01:24;;;;;;;14.30;8.40;;;;;;;;;;6242311;23;20362;-76
2023/05/25 03:03:53;;;;;;;18.05;9.10;;;;;;;;;;6216386;23;20369;-76
2023/05/25 03:06:22;;;;;;;17.10;9.85;;;;;;;;;;6218219;23;20420;-76
2023/05/25 03:08:48;;;;;;;18.48;9.13;;;;;;;;;;6244116;23;20678;-75
2023/05/25 03:11:14;;;;;;;16.57;8.60;;;;;;;;;;6242577;23;20383;-75
2023/05/25 03:13:40;;;;;;;20.55;9.90;;;;;;;;;;6216691;23;20366;-77
2023/05/25 03:16:07;;;;;;;18.58;9.40;;;;;;;;;;6243783;23;20377;-76
2023/05/25 03:18:33;;;;;;;15.57;9.15;;;;;;;;;;6242450;23;20440;-74
2023/05/25 03:20:59;;;;;;;18.65;9.05;;;;;;;;;;6241966;23;20370;-75
2023/05/25 03:23:25;;;;;;;16.63;9.32;;;;;;;;;;6243610;23;20369;-75
2023/05/25 03:25:51;;;;;;;16.33;8.67;;;;;;;;;;6242499;23;20373;-75
2023/05/25 03:28:17;;;;;;;17.20;9.20;;;;;;;;;;6191752;23;20773;-76
2023/05/25 03:30:43;;;;;;;17.92;9.30;;;;;;;;;;6217838;23;20365;-76
2023/05/25 03:33:12;;;;;;;20.70;9.60;;;;;;;;;;6241870;23;20362;-76
2023/05/25 03:35:38;;;;;;;17.48;9.00;;;;;;;;;;6242837;23;20369;-76
2023/05/25 03:38:04;;;;;;;18.67;9.80;;;;;;;;;;6243801;23;20428;-75
2023/05/25 03:40:30;;;;;;;17.90;9.27;;;;;;;;;;6216447;23;20824;-76
2023/05/25 03:42:56;;;;;;;18.48;9.18;;;;;;;;;;6242661;23;20432;-76
2023/05/25 03:45:22;;;;;;;22.23;10.48;;;;;;;;;;6241609;23;20362;-76
2023/05/25 03:47:48;;;;;;;19.63;10.43;;;;;;;;;;6242162;23;20373;-76
2023/05/25 03:50:15;;;;;;;16.33;9.25;;;;;;;;;;6242305;23;20432;-76
2023/05/25 03:52:41;;;;;;;19.70;10.52;;;;;;;;;;6242586;23;20452;-76
2023/05/25 03:55:07;;;;;;;23.98;11.57;;;;;;;;;;6217884;23;20393;-76
2023/05/25 03:57:33;;;;;;;23.60;12.90;;;;;;;;;;6217977;23;20372;-76
2023/05/25 04:00:00;;;;;;;23.45;13.90;;;;;;;;;;6241861;23;20390;-76
2023/05/25 04:02:26;;;;;;;24.05;13.68;;;;;;;;;;6241309;23;20396;-76
2023/05/25 04:04:52;;;;;;;25.35;14.15;;;;;;;;;;6243149;23;20396;-76
2023/05/25 04:07:19;;;;;;;28.90;15.47;;;;;;;;;;6218871;23;20370;-76
2023/05/25 04:09:45;;;;;;;27.52;15.48;;;;;;;;;;6242808;23;20385;-75
2023/05/25 04:12:11;;;;;;;30.88;15.95;;;;;;;;;;6242768;23;20366;-76
2023/05/25 04:14:37;;;;;;;28.25;15.48;;;;;;;;;;6216174;23;20369;-76
2023/05/25 04:17:04;;;;;;;27.63;15.77;;;;;;;;;;6242886;23;20428;-76
2023/05/25 04:19:30;;;;;;;28.40;15.23;;;;;;;;;;6240600;23;20689;-76
2023/05/25 04:21:56;;;;;;;29.25;16.23;;;;;;;;;;6243048;23;20723;-77
2023/05/25 04:24:22;;;;;;;29.63;17.30;;;;;;;;;;6242379;23;20384;-75
2023/05/25 04:26:49;;;;;;;33.57;17.90;;;;;;;;;;6240545;23;20389;-76
2023/05/25 04:29:15;;;;;;;34.92;18.13;;;;;;;;;;6242849;23;20370;-76
2023/05/25 04:31:44;;;;;;;37.20;19.25;;;;;;;;;;6242227;23;20428;-76
2023/05/25 04:34:10;;;;;;;38.72;19.48;;;;;;;;;;6243085;23;20423;-76
2023/05/25 04:36:41;;;;;;;35.38;19.30;;;;;;;;;;6240990;23;20366;-74
2023/05/25 04:39:07;;;;;;;37.88;19.10;;;;;;;;;;6242309;23;20958;-75
2023/05/25 04:41:33;;;;;;;36.05;19.25;;;;;;;;;;6241731;23;20362;-76
2023/05/25 04:44:00;;;;;;;35.10;18.48;;;;;;;;;;6216922;23;20362;-76
2023/05/25 04:46:26;;;;;;;37.13;18.05;;;;;;;;;;6242412;23;20441;-76
2023/05/25 04:48:52;;;;;;;32.83;17.60;;;;;;;;;;6216599;23;20373;-76
2023/05/25 04:51:18;;;;;;;35.53;17.55;;;;;;;;;;6215070;23;20369;-75
2023/05/25 04:53:44;;;;;;;35.05;17.15;;;;;;;;;;6242067;23;20405;-75
2023/05/25 04:56:10;;;;;;;31.90;16.20;;;;;;;;;;6242397;23;20424;-75
2023/05/25 04:58:36;;;;;;;34.30;17.00;;;;;;;;;;6241552;23;20469;-75
2023/05/25 05:01:02;;;;;;;33.42;16.70;;;;;;;;;;6235438;23;20423;-75
2023/05/25 05:03:28;;;;;;;31.45;16.10;;;;;;;;;;6239766;23;20366;-75
2023/05/25 05:05:55;;;;;;;33.17;15.70;;;;;;;;;;6191507;23;20369;-75
2023/05/25 05:08:21;;;;;;;35.60;16.42;;;;;;;;;;6241110;23;20373;-75
2023/05/25 05:10:47;;;;;;;31.67;15.63;;;;;;;;;;6216751;23;20397;-75
2023/05/25 05:13:14;;;;;;;31.98;15.95;;;;;;;;;;6216592;23;20370;-75
2023/05/25 05:15:40;;;;;;;32.75;15.82;;;;;;;;;;6240076;23;20373;-76
2023/05/25 05:18:07;;;;;;;32.40;16.20;;;;;;;;;;6239153;23;20533;-75
2023/05/25 05:20:33;;;;;;;30.92;15.40;;;;;;;;;;6241675;23;20362;-75
2023/05/25 05:22:59;;;;;;;27.20;15.30;;;;;;;;;;6240461;23;20412;-75
2023/05/25 05:25:25;;;;;;;29.83;15.38;;;;;;;;;;6191205;23;20373;-76
2023/05/25 05:27:51;;;;;;;33.00;14.82;;;;;;;;;;6238578;23;20763;-76
2023/05/25 05:30:18;;;;;;;32.88;15.20;;;;;;;;;;6238714;23;20453;-77
2023/05/25 05:32:44;;;;;;;30.15;15.07;;;;;;;;;;6211570;23;20370;-78
2023/05/25 05:35:10;;;;;;;28.30;15.05;;;;;;;;;;6216081;23;20369;-78
2023/05/25 05:37:36;;;;;;;32.83;14.68;;;;;;;;;;6215180;23;20395;-77
2023/05/25 05:40:03;;;;;;;29.35;14.48;;;;;;;;;;6216604;23;20386;-77
2023/05/25 05:42:29;;;;;;;29.05;13.77;;;;;;;;;;6216438;23;20366;-77
2023/05/25 05:44:55;;;;;;;26.45;14.10;;;;;;;;;;6215954;23;20384;-79
2023/05/25 05:47:21;;;;;;;26.23;12.68;;;;;;;;;;6239873;23;20419;-78
2023/05/25 05:49:47;;;;;;;25.83;13.50;;;;;;;;;;6214976;23;20366;-76
2023/05/25 05:52:13;;;;;;;24.73;12.60;;;;;;;;;;6216177;23;20365;-77
2023/05/25 05:54:39;;;;;;;25.10;12.90;;;;;;;;;;6218136;23;20369;-77
2023/05/25 05:57:05;;;;;;;27.08;13.13;;;;;;;;;;6218464;23;20370;-78
2023/05/25 05:59:31;;;;;;;24.90;12.43;;;;;;;;;;6243779;23;20469;-78
2023/05/25 06:01:57;;;;;;;22.80;11.73;;;;;;;;;;6242008;23;20369;-76
2023/05/25 06:04:27;;;;;;;21.65;11.88;;;;;;;;;;6242454;23;20440;-76
2023/05/25 06:06:53;;;;;;;26.57;12.23;;;;;;;;;;6243346;23;20771;-77
2023/05/25 06:09:19;;;;;;;28.42;12.32;;;;;;;;;;6193773;23;20812;-77
2023/05/25 06:11:46;;;;;;;24.03;11.97;;;12.30;99.90;;;;;;6218500;23;20906;-77
2023/05/25 06:14:12;;;;;;;24.23;10.57;;;12.40;99.90;;;;;;6216459;23;20385;-76
2023/05/25 06:16:38;;;;;;;19.40;9.93;;;;;;;;;;6193452;23;20374;-76
2023/05/25 06:19:04;;;;;;;20.67;10.05;;;;;;;;;;6241444;23;20417;-77
2023/05/25 06:21:30;;;;;;;20.35;9.45;;;;;;;;;;6242770;23;20361;-77
2023/05/25 06:23:59;;;;;;;23.60;10.27;;;;;;;;;;6241263;23;20362;-76
2023/05/25 06:26:26;;;;;;;20.95;9.73;;;;;;;;;;6242980;23;20394;-77
2023/05/25 06:28:52;;;;;;;18.33;9.45;;;;;;;;;;6217691;23;20366;-77
2023/05/25 06:31:18;;;;;;;23.15;9.75;;;;;;;;;;6241655;23;20372;-77
2023/05/25 06:33:44;;;;;;;20.57;9.50;;;;;;;;;;6216056;23;20409;-76
2023/05/25 06:36:12;;;;;;;22.90;9.93;;;;;;;;;;6242129;23;20362;-77
2023/05/25 06:38:38;;;;;;;23.58;9.88;;;13.20;99.90;;;;;;6243430;23;20489;-77
2023/05/25 06:41:06;;;;;;;21.57;9.50;;;;;;;;;;6216538;23;20393;-78
2023/05/25 06:43:32;;;;;;;19.48;9.18;;;13.20;99.90;;;;;;6214709;23;20370;-79
2023/05/25 06:45:58;;;;;;;20.63;9.43;;;;;;;;;;6216475;23;20836;-78
2023/05/25 06:48:24;;;;;;;18.08;8.10;;;;;;;;;;6191671;23;20366;-78
2023/05/25 06:50:50;;;;;;;18.13;7.85;;;;;;;;;;6239937;23;20361;-76
2023/05/25 06:53:16;;;;;;;18.20;7.60;;;;;;;;;;6216201;23;20388;-76
2023/05/25 06:55:43;;;;;;;17.50;7.30;;;;;;;;;;6216218;23;20362;-77
2023/05/25 06:58:10;;;;;;;18.77;5.88;;;;;;;;;;6241983;23;20819;-77
2023/05/25 07:00:36;;;;;;;16.58;5.93;;;;;;;;;;6241624;23;20380;-77
2023/05/25 07:03:02;;;;;;;15.87;5.80;;;;;;;;;;6240930;23;20362;-77
2023/05/25 07:05:28;;;;;;;14.20;5.30;;;13.80;99.90;;;;;;6243207;23;20361;-79
2023/05/25 07:07:54;;;;;;;18.77;5.67;;;;;;;;;;6187791;23;20376;-79
2023/05/25 07:10:20;;;;;;;14.02;4.82;;;;;;;;;;6189864;23;20369;-77
2023/05/25 07:12:46;;;;;;;15.05;4.55;;;;;;;;;;6240510;23;20688;-78
2023/05/25 07:15:12;;;;;;;11.48;4.35;;;;;;;;;;6241697;23;20416;-77
2023/05/25 07:17:38;;;;;;;15.13;4.95;;;;;;;;;;6239380;23;20385;-78
2023/05/25 07:20:05;;;;;;;13.38;4.30;;;;;;;;;;6242563;23;20859;-77
2023/05/25 07:22:31;;;;;;;11.98;4.50;;;;;;;;;;6217559;23;20836;-76
2023/05/25 07:24:57;;;;;;;12.70;4.60;;;;;;;;;;6242127;23;20824;-77
2023/05/25 07:27:24;;;;;;;13.38;4.32;;;;;;;;;;6240111;23;20377;-76
2023/05/25 07:29:50;;;;;;;16.77;4.93;;;;;;;;;;6193186;23;20419;-76
2023/05/25 07:32:16;;;;;;;15.63;4.68;;;;;;;;;;6215194;23;20366;-76
2023/05/25 07:34:42;;;;;;;13.70;5.20;;;;;;;;;;6237024;23;20675;-77
2023/05/25 07:37:08;;;;;;;14.27;4.80;;;;;;;;;;6240626;23;20374;-77
2023/05/25 07:39:34;;;;;;;15.48;4.78;;;;;;;;;;6216163;23;20441;-78
2023/05/25 07:42:01;;;;;;;13.38;5.05;;;;;;;;;;6217282;23;20366;-78
2023/05/25 07:44:28;;;;;;;17.90;5.25;;;;;;;;;;6239897;23;20454;-78
2023/05/25 07:46:55;;;;;;;15.20;4.30;;;;;;;;;;6243116;23;20362;-78
2023/05/25 07:49:21;;;;;;;14.48;4.65;;;;;;;;;;6240957;23;20366;-76
2023/05/25 07:51:47;;;;;;;13.35;4.93;;;;;;;;;;6216013;23;20377;-77
2023/05/25 07:54:13;;;;;;;19.83;6.15;;;;;;;;;;6242896;23;20444;-77
2023/05/25 07:56:39;;;;;;;20.73;5.78;;;;;;;;;;6216411;23;20373;-77
2023/05/25 07:59:05;;;;;;;20.20;6.05;;;14.70;99.90;;;;;;6242280;23;20686;-76
2023/05/25 08:01:31;;;;;;;23.95;6.00;;;;;;;;;;6216601;23;20435;-77
2023/05/25 08:03:57;;;;;;;16.70;5.60;;;;;;;;;;6243091;23;20445;-76
2023/05/25 08:06:23;;;;;;;21.90;6.30;;;;;;;;;;6215114;23;20441;-77
2023/05/25 08:08:49;;;;;;;20.15;6.22;;;;;;;;;;6242332;23;20372;-76
2023/05/25 08:11:16;;;;;;;24.43;6.23;;;;;;;;;;6241039;23;20665;-77
2023/05/25 08:13:42;;;;;;;20.95;6.13;;;;;;;;;;6241438;23;20373;-77
2023/05/25 08:16:08;;;;;;;20.00;5.63;;;;;;;;;;6241899;23;20372;-77
2023/05/25 08:18:34;;;;;;;20.63;5.55;;;;;;;;;;6218042;23;20821;-76
2023/05/25 08:21:00;;;;;;;22.35;5.40;;;;;;;;;;6191144;23;20373;-76
2023/05/25 08:23:27;;;;;;;22.70;5.57;;;;;;;;;;6241590;23;20362;-75
2023/05/25 08:25:53;;;;;;;20.60;5.90;;;;;;;;;;6240694;23;20366;-75
2023/05/25 08:28:22;;;;;;;17.02;5.22;;;;;;;;;;6217326;23;20388;-75
2023/05/25 08:30:48;;;;;;;24.97;5.87;;;;;;;;;;6242450;23;20523;-77
2023/05/25 08:33:14;;;;;;;25.42;6.18;;;14.40;99.90;;;;;;6242826;23;20856;-76
2023/05/25 08:35:41;;;;;;;21.60;5.60;;;;;;;;;;6215757;23;20369;-76
2023/05/25 08:38:08;;;;;;;19.33;5.40;;;;;;;;;;6217854;23;20393;-76
2023/05/25 08:40:33;;;;;;;21.83;5.15;;;14.50;99.90;;;;;;6241606;23;20386;-76
2023/05/25 08:43:00;;;;;;;20.17;4.72;;;;;;;;;;6216198;23;20419;-77
2023/05/25 08:45:26;;;;;;;21.70;5.18;;;;;;;;;;6216228;23;20362;-76
2023/05/25 08:47:57;;;;;;;21.90;5.28;;;14.70;99.90;;;;;;6240554;23;20396;-77
2023/05/25 08:50:25;;;;;;;24.58;5.65;;;14.70;99.90;;;;;;6240216;23;20373;-77
2023/05/25 08:52:54;;;;;;;24.92;5.55;;;14.60;99.90;;;;;;6239292;23;20449;-77
2023/05/25 08:55:22;;;;;;;20.35;5.45;;;14.80;99.90;;;;;;6241402;23;20361;-76
2023/05/25 08:57:51;;;;;;;21.25;5.40;;;;;;;;;;6191234;23;20373;-77
2023/05/25 09:00:20;;;;;;;22.63;6.00;;;;;;;;;;6239617;23;20393;-77
2023/05/25 09:03:08;;;;;;;24.47;6.13;;;15.30;99.90;;;;;;6239549;23;20391;-77
2023/05/25 09:05:35;;;;;;;19.00;4.82;;;;;;;;;;6235553;23;20358;-77
2023/05/25 09:08:06;;;;;;;20.45;5.22;;;15.30;99.90;;;;;;6238963;23;20447;-78
2023/05/25 09:10:33;;;;;;;21.35;5.32;;;;;;;;;;6239480;23;20397;-78
2023/05/25 09:12:59;;;;;;;19.27;5.00;;;;;;;;;;6240058;23;20380;-77
2023/05/25 09:15:25;;;;;;;21.92;4.95;;;;;;;;;;6186623;23;20455;-77
2023/05/25 09:17:51;;;;;;;23.63;5.32;;;;;;;;;;6238213;23;20696;-76
2023/05/25 09:20:18;;;;;;;21.10;5.00;;;16.20;99.90;;;;;;6239314;23;20386;-77
2023/05/25 09:22:44;;;;;;;20.05;5.40;;;16.00;99.90;;;;;;6240860;23;20370;-76
2023/05/25 09:25:10;;;;;;;17.05;5.07;;;16.00;99.90;;;;;;6215011;23;20366;-76
2023/05/25 09:27:36;;;;;;;19.73;5.15;;;15.80;99.90;;;;;;6241867;22;20374;-76
2023/05/25 09:30:04;;;;;;;20.00;5.22;;;15.80;99.90;;;;;;6214140;23;20381;-76
2023/05/25 09:32:30;;;;;;;21.20;5.47;;;;;;;;;;6237533;23;20370;-77
2023/05/25 09:35:14;;;;;;;17.83;5.10;;;15.90;99.90;;;;;;6189419;23;20448;-76
2023/05/25 09:37:41;;;;;;;18.67;5.07;;;;;;;;;;6235695;23;20390;-75
2023/05/25 09:40:08;;;;;;;17.10;5.00;;;16.30;99.90;;;;;;6214538;23;20385;-77
2023/05/25 09:42:34;;;;;;;21.02;5.10;;;16.30;99.90;;;;;;6215411;23;20772;-76
2023/05/25 09:45:01;;;;;;;17.90;4.80;;;16.30;99.90;;;;;;6215801;23;20401;-77
2023/05/25 09:47:28;;;;;;;18.90;5.40;;;;;;;;;;6238846;23;20362;-76
2023/05/25 09:49:54;;;;;;;19.63;5.18;;;;;;;;;;6240748;23;20900;-77
2023/05/25 09:52:21;;;;;;;26.45;5.68;;;;;;;;;;6239761;23;20419;-78
2023/05/25 09:54:50;;;;;;;19.23;5.25;;;16.70;99.90;;;;;;6240752;23;20370;-76
2023/05/25 09:57:19;;;;;;;18.05;4.68;;;16.70;99.90;;;;;;6216204;23;20376;-78
2023/05/25 09:59:45;;;;;;;16.65;4.32;;;16.70;99.90;;;;;;6240389;23;20909;-76
2023/05/25 10:02:11;;;;;;;15.82;4.50;;;;;;;;;;6240641;23;20727;-77
2023/05/25 10:04:38;;;;;;;18.42;5.07;;;;;;;;;;6216645;23;20907;-76
2023/05/25 10:07:04;;;;;;;19.80;4.65;;;16.80;99.90;;;;;;6240637;23;20854;-76
2023/05/25 10:09:30;;;;;;;20.93;4.67;;;17.00;99.90;;;;;;6240253;23;20366;-77
2023/05/25 10:12:00;;;;;;;17.50;5.47;;;;;;;;;;6166604;23;20366;-77
2023/05/25 10:14:27;;;;;;;21.65;4.80;;;16.70;99.90;;;;;;6215742;23;20424;-77
2023/05/25 10:16:56;;;;;;;19.30;5.30;;;16.60;99.90;;;;;;6215364;23;20405;-77
2023/05/25 10:19:33;;;;;;;18.30;4.50;;;16.50;99.90;;;;;;6214504;23;20416;-77
2023/05/25 10:22:06;;;;;;;16.50;4.87;;;;;;;;;;6237469;23;20452;-77
2023/05/25 10:24:43;;;;;;;19.60;5.07;;;;;;;;;;6240410;23;20366;-76
2023/05/25 10:27:16;;;;;;;17.98;4.88;;;17.00;99.90;;;;;;6240578;23;20769;-76
2023/05/25 10:29:44;;;;;;;17.08;4.38;;;;;;;;;;6238173;23;20753;-78
2023/05/25 10:32:10;;;;;;;17.10;4.93;;;17.00;99.90;;;;;;6239411;23;20405;-78
2023/05/25 10:34:36;;;;;;;20.70;4.90;;;;;;;;;;6240620;23;20370;-78
2023/05/25 10:37:03;;;;;;;18.50;5.03;;;16.80;99.90;;;;;;6241420;23;20397;-77
2023/05/25 10:39:30;;;;;;;18.92;5.03;;;16.80;99.90;;;;;;6217025;23;20775;-77
2023/05/25 10:41:56;;;;;;;20.75;5.15;;;;;;;;;;6217930;23;20419;-78
2023/05/25 10:44:23;;;;;;;19.20;5.35;;;17.00;99.90;;;;;;6213626;23;20366;-77
2023/05/25 10:46:50;;;;;;;20.42;5.30;;;16.70;99.90;;;;;;6192079;23;20390;-78
2023/05/25 10:49:25;;;;;;;23.10;5.25;;;;;;;;;;6242393;23;20370;-77
2023/05/25 10:51:58;;;;;;;18.77;4.30;;;16.80;99.90;;;;;;6215653;23;20373;-76
2023/05/25 10:54:28;;;;;;;17.20;4.95;;;;;;;;;;6216968;23;20366;-77
2023/05/25 10:57:21;;;;;;;18.88;5.18;;;17.00;99.90;;;;;;6242786;23;20370;-78
2023/05/25 10:59:51;;;;;;;17.88;5.18;;;;;;;;;;6217331;23;20439;-77
2023/05/25 11:02:22;;;;;;;21.20;5.20;;;;;;;;;;6240154;23;20362;-77
2023/05/25 11:04:48;;;;;;;18.80;5.18;;;17.50;99.90;;;;;;6240944;23;20389;-78
2023/05/25 11:07:15;;;;;;;22.38;5.47;;;;;;;;;;6240151;23;20373;-77
2023/05/25 11:09:42;;;;;;;25.25;5.35;;;;;;;;;;6241751;23;20376;-78
2023/05/25 11:12:18;;;;;;;20.75;4.95;;;17.40;99.90;;;;;;6241626;23;20760;-77
2023/05/25 11:14:44;;;;;;;20.73;5.43;;;;;;;;;;6240797;23;20452;-78
2023/05/25 11:17:17;;;;;;;18.92;5.00;;;17.10;99.90;;;;;;6215546;23;20744;-78
2023/05/25 11:19:52;;;;;;;17.15;5.10;;;17.00;99.90;;;;;;6215849;23;20868;-78
2023/05/25 11:22:20;;;;;;;19.45;5.07;;;16.80;99.90;;;;;;6241033;23;20368;-78
2023/05/25 11:24:50;;;;;;;19.05;4.72;;;;;;;;;;6236837;23;20366;-78
2023/05/25 11:27:22;;;;;;;16.73;4.63;;;17.10;99.90;;;;;;6235147;23;20378;-78
2023/05/25 11:29:49;;;;;;;16.33;5.27;;;;;;;;;;6212838;23;20381;-78
2023/05/25 11:32:16;;;;;;;19.40;4.82;;;;;;;;;;6237472;23;21033;-78
2023/05/25 11:34:45;;;;;;;19.27;5.20;;;;;;;;;;6211510;23;20704;-77
2023/05/25 11:37:15;;;;;;;15.40;4.78;;;17.40;99.90;;;;;;6236417;23;20406;-77
2023/05/25 11:39:45;;;;;;;20.35;5.10;;;17.30;99.90;;;;;;6237669;23;20893;-78
2023/05/25 11:42:13;;;;;;;19.83;5.00;;;17.20;99.90;;;;;;6235479;23;20441;-78
2023/05/25 11:44:40;;;;;;;19.25;4.90;;;;;;;;;;6237838;23;20508;-77
2023/05/25 11:47:07;;;;;;;18.17;4.97;;;;;;;;;;6236851;23;20419;-78
2023/05/25 11:49:33;;;;;;;20.63;4.88;;;;;;;;;;6185668;23;20370;-78
2023/05/25 11:52:05;;;;;;;19.38;4.75;;;17.00;99.90;;;;;;6237308;23;20370;-79
2023/05/25 11:54:32;;;;;;;17.05;4.43;;;;;;;;;;6236591;23;20377;-78
2023/05/25 11:56:58;;;;;;;21.58;4.70;;;17.60;99.90;;;;;;6240479;23;20377;-78
2023/05/25 11:59:26;;;;;;;19.13;4.97;;;17.60;99.90;;;;;;6213324;23;20392;-78
2023/05/25 12:02:10;;;;;;;18.73;4.97;;;;;;;;;;6237652;23;20389;-78
2023/05/25 12:04:36;;;;;;;22.03;5.47;;;17.50;99.90;;;;;;6238109;23;20362;-78
2023/05/25 12:07:04;;;;;;;22.17;5.38;;;17.80;99.90;;;;;;6212551;23;20385;-77
2023/05/25 12:09:31;;;;;;;18.08;5.00;;;17.60;99.90;;;;;;6216461;23;20366;-77
2023/05/25 12:11:57;;;;;;;17.40;4.85;;;;;;;;;;6190875;23;20369;-78
2023/05/25 12:14:26;;;;;;;20.10;4.85;;;;;;;;;;6215438;23;20453;-77
2023/05/25 12:16:53;;;;;;;16.95;4.60;;;;;;;;;;6242131;23;20366;-77
2023/05/25 12:19:20;;;;;;;17.80;5.07;;;17.80;99.90;;;;;;6215905;23;20476;-77
2023/05/25 12:21:46;;;;;;;18.50;5.57;;;;;;;;;;6191206;23;20678;-78
2023/05/25 12:24:13;;;;;;;15.30;4.95;;;;;;;;;;6238234;23;20359;-78
2023/05/25 12:27:00;;;;;;;18.83;5.13;;;17.50;99.90;;;;;;6239974;23;20370;-78
2023/05/25 12:29:27;;;;;;;14.27;4.45;;;;;;;;;;6215896;23;20389;-77
2023/05/25 12:32:00;;;;;;;16.30;4.57;;;17.70;99.90;;;;;;6215655;23;20365;-78
2023/05/25 12:34:29;;;;;;;20.27;5.47;;;;;;;;;;6238450;23;20377;-78
2023/05/25 12:36:56;;;;;;;16.30;4.45;;;17.90;99.90;;;;;;6210418;23;20378;-78
2023/05/25 12:39:30;;;;;;;18.57;4.90;;;18.00;99.90;;;;;;6236408;23;20523;-79
2023/05/25 12:42:01;;;;;;;20.45;5.68;;;18.10;99.90;;;;;;6238073;23;20362;-80
2023/05/25 12:44:33;;;;;;;17.98;5.72;;;18.00;99.90;;;;;;6241720;23;20362;-78
2023/05/25 12:47:21;;;;;;;20.20;5.57;;;17.60;99.90;;;;;;6241430;23;20365;-77
2023/05/25 12:49:50;;;;;;;17.50;4.47;;;17.80;99.90;;;;;;6239177;23;20831;-78
2023/05/25 12:52:32;;;;;;;15.82;4.70;;;17.90;99.90;;;;;;6237609;23;20370;-78
2023/05/25 12:54:58;;;;;;;17.02;5.15;;;18.10;99.90;;;;;;6237745;23;20700;-78
2023/05/25 12:57:34;;;;;;;21.53;5.70;;;17.80;99.90;;;;;;6212328;23;20413;-78
2023/05/25 13:00:00;;;;;;;19.92;4.95;;;17.90;99.90;;;;;;6216987;23;20864;-78
2023/05/25 13:02:25;;;;;;;20.55;5.70;;;17.90;99.90;;;;;;6217358;23;20394;-79
2023/05/25 13:04:51;;;;;;;18.13;5.50;;;18.00;99.90;;;;;;6215703;23;20693;-77
2023/05/25 13:07:17;;;;;;;20.40;5.50;;;18.30;99.90;;;;;;6239893;23;20373;-77
2023/05/25 13:09:43;;;;;;;15.43;4.83;;;18.50;99.90;;;;;;6191240;23;20370;-78
2023/05/25 13:12:09;;;;;;;18.20;4.77;;;18.40;99.90;;;;;;6213928;23;20376;-77
2023/05/25 13:14:34;;;;;;;20.33;5.25;;;18.30;99.90;;;;;;6216889;23;20404;-77
2023/05/25 13:17:04;;;;;;;18.55;5.00;;;;;;;;;;6239618;23;20732;-78
2023/05/25 13:19:29;;;;;;;20.52;4.75;;;18.10;99.90;;;;;;6214710;23;20397;-77
2023/05/25 13:21:55;;;;;;;18.07;5.07;;;18.00;99.90;;;;;;6217016;23;20362;-79
2023/05/25 13:24:21;;;;;;;17.17;5.37;;;18.20;99.90;;;;;;6191987;23;20828;-79
2023/05/25 13:26:48;;;;;;;19.75;5.63;;;18.00;99.90;;;;;;6241047;23;20377;-79
2023/05/25 13:29:14;;;;;;;19.17;5.40;;;;;;;;;;6217167;23;20859;-79
2023/05/25 13:31:41;;;;;;;18.10;4.78;;;18.30;99.90;;;;;;6214599;23;20843;-79
2023/05/25 13:34:07;;;;;;;17.98;4.90;;;18.30;99.90;;;;;;6241546;23;20734;-80
2023/05/25 13:36:33;;;;;;;21.33;5.13;;;18.30;99.90;;;;;;6240603;23;20365;-78
2023/05/25 13:39:00;;;;;;;21.33;5.43;;;18.20;99.90;;;;;;6212308;23;20397;-79
2023/05/25 13:41:27;;;;;;;20.33;5.53;;;18.00;99.90;;;;;;6239726;23;20365;-79
2023/05/25 13:43:52;;;;;;;19.05;5.70;;;18.30;99.90;;;;;;6215189;23;20366;-79
2023/05/25 13:46:18;;;;;;;17.88;5.45;;;18.00;99.90;;;;;;6191594;23;20827;-78
2023/05/25 13:48:47;;;;;;;18.20;5.15;;;18.00;99.90;;;;;;6216797;23;20759;-79
2023/05/25 13:51:14;;;;;;;19.40;5.20;;;18.20;99.90;;;;;;6212492;23;20469;-80
2023/05/25 13:53:40;;;;;;;19.65;5.22;;;18.40;99.90;;;;;;6217356;23;20372;-78